createdAt,value
2017-04-18T00:00:00.123Z,6.5
2017-04-18T00:00:10.081Z,6.5
2017-04-18T00:00:20.076Z,6.5
2017-04-18T00:00:30.069Z,6.5
2017-04-18T00:00:40.065Z,6.5
2017-04-18T00:00:50.056Z,6.5
2017-04-18T00:01:00.054Z,6.5
2017-04-18T00:01:10.050Z,6.5
2017-04-18T00:01:20.040Z,6.5
2017-04-18T00:01:30.033Z,6.4
2017-04-18T00:01:40.025Z,6.4
2017-04-18T00:01:50.021Z,6.4
2017-04-18T00:02:00.013Z,6.5
2017-04-18T00:02:09.693Z,6.4
2017-04-18T00:02:19.667Z,6.4
2017-04-18T00:02:29.997Z,6.4
2017-04-18T00:02:40.363Z,6.3
2017-04-18T00:02:49.985Z,6.3
2017-04-18T00:02:59.978Z,6.3
2017-04-18T00:03:09.971Z,6.3
2017-04-18T00:03:19.631Z,6.3
2017-04-18T00:03:29.961Z,6.3
2017-04-18T00:03:39.918Z,6.3
2017-04-18T00:03:50.328Z,6.3
2017-04-18T00:03:59.942Z,6.3
2017-04-18T00:04:09.601Z,6.3
2017-04-18T00:04:20.178Z,6.3
2017-04-18T00:04:29.927Z,6.3
2017-04-18T00:04:39.936Z,6.3
2017-04-18T00:04:49.912Z,6.3
2017-04-18T00:04:59.907Z,6.3
2017-04-18T00:05:09.896Z,6.3
2017-04-18T00:05:19.557Z,6.3
2017-04-18T00:05:29.885Z,6.3
2017-04-18T00:05:39.880Z,6.3
2017-04-18T00:05:49.874Z,6.3
2017-04-18T00:05:59.867Z,6.3
2017-04-18T00:06:09.860Z,6.3
2017-04-18T00:06:19.855Z,6.4
2017-04-18T00:06:29.850Z,6.4
2017-04-18T00:06:39.843Z,6.4
2017-04-18T00:06:49.838Z,6.4
2017-04-18T00:06:59.832Z,6.4
2017-04-18T00:07:09.824Z,6.4
2017-04-18T00:07:19.831Z,6.4
2017-04-18T00:07:29.481Z,6.3
2017-04-18T00:07:39.808Z,6.4
2017-04-18T00:07:49.801Z,6.3
2017-04-18T00:07:59.794Z,6.4
2017-04-18T00:08:09.789Z,6.3
2017-04-18T00:08:19.123Z,6.3
2017-04-18T00:08:29.776Z,6.3
2017-04-18T00:08:39.434Z,6.3
2017-04-18T00:08:49.768Z,6.3
2017-04-18T00:08:59.758Z,6.3
2017-04-18T00:09:09.751Z,6.3
2017-04-18T00:09:19.991Z,6.3
2017-04-18T00:09:29.736Z,6.3
2017-04-18T00:09:39.732Z,6.3
2017-04-18T00:09:49.726Z,6.3
2017-04-18T00:09:59.722Z,6.3
2017-04-18T00:10:09.745Z,6.3
2017-04-18T00:10:19.705Z,6.3
2017-04-18T00:10:29.399Z,6.3
2017-04-18T00:10:39.697Z,6.3
2017-04-18T00:10:49.354Z,6.3
2017-04-18T00:10:59.685Z,6.3
2017-04-18T00:11:09.679Z,6.4
2017-04-18T00:11:19.336Z,6.4
2017-04-18T00:11:29.667Z,6.4
2017-04-18T00:11:39.695Z,6.4
2017-04-18T00:11:50.009Z,6.4
2017-04-18T00:11:59.647Z,6.4
2017-04-18T00:12:08.970Z,6.4
2017-04-18T00:12:19.635Z,6.3
2017-04-18T00:12:29.626Z,6.3
2017-04-18T00:12:39.621Z,6.3
2017-04-18T00:12:49.622Z,6.3
2017-04-18T00:12:59.615Z,6.3
2017-04-18T00:13:09.605Z,6.3
2017-04-18T00:13:19.600Z,6.3
2017-04-18T00:13:29.258Z,6.3
2017-04-18T00:13:39.587Z,6.3
2017-04-18T00:13:49.580Z,6.3
2017-04-18T00:13:59.572Z,6.3
2017-04-18T00:14:09.567Z,6.3
2017-04-18T00:14:19.563Z,6.3
2017-04-18T00:14:29.221Z,6.3
2017-04-18T00:14:39.546Z,6.3
2017-04-18T00:14:49.571Z,6.3
2017-04-18T00:14:59.536Z,6.3
2017-04-18T00:15:09.195Z,6.3
2017-04-18T00:15:19.190Z,6.2
2017-04-18T00:15:29.518Z,6.2
2017-04-18T00:15:39.177Z,6.2
2017-04-18T00:15:49.170Z,6.2
2017-04-18T00:15:59.498Z,6.2
2017-04-18T00:16:09.848Z,6.2
2017-04-18T00:16:19.490Z,6.2
2017-04-18T00:16:29.482Z,6.2
2017-04-18T00:16:39.473Z,6.2
2017-04-18T00:16:49.468Z,6.2
2017-04-18T00:16:59.129Z,6.2
2017-04-18T00:17:09.457Z,6.2
2017-04-18T00:17:19.480Z,6.2
2017-04-18T00:17:29.444Z,6.2
2017-04-18T00:17:39.104Z,6.2
2017-04-18T00:17:49.431Z,6.2
2017-04-18T00:17:59.789Z,6.2
2017-04-18T00:18:09.422Z,6.2
2017-04-18T00:18:19.412Z,6.2
2017-04-18T00:18:29.406Z,6.2
2017-04-18T00:18:39.403Z,6.2
2017-04-18T00:18:49.396Z,6.2
2017-04-18T00:18:59.759Z,6.1
2017-04-18T00:19:09.733Z,6.2
2017-04-18T00:19:19.377Z,6.2
2017-04-18T00:19:29.372Z,6.2
2017-04-18T00:19:39.365Z,6.1
2017-04-18T00:19:49.358Z,6.1
2017-04-18T00:19:59.355Z,6.1
2017-04-18T00:20:09.710Z,6.2
2017-04-18T00:20:19.007Z,6.2
2017-04-18T00:20:29.333Z,6.2
2017-04-18T00:20:39.730Z,6.2
2017-04-18T00:20:49.321Z,6.2
2017-04-18T00:20:59.314Z,6.2
2017-04-18T00:21:09.307Z,6.1
2017-04-18T00:21:19.658Z,6.1
2017-04-18T00:21:29.298Z,6.1
2017-04-18T00:21:38.955Z,6.1
2017-04-18T00:21:49.508Z,6.1
2017-04-18T00:21:59.281Z,6.1
2017-04-18T00:22:08.937Z,6.1
2017-04-18T00:22:18.932Z,6.1
2017-04-18T00:22:29.259Z,6.1
2017-04-18T00:22:39.254Z,6.1
2017-04-18T00:22:49.247Z,6.1
2017-04-18T00:22:59.321Z,6.1
2017-04-18T00:23:09.235Z,6.1
2017-04-18T00:23:19.229Z,6.1
2017-04-18T00:23:29.221Z,6.1
2017-04-18T00:23:39.219Z,6.1
2017-04-18T00:23:49.210Z,6.1
2017-04-18T00:23:59.205Z,6.1
2017-04-18T00:24:09.200Z,6.1
2017-04-18T00:24:19.492Z,6.1
2017-04-18T00:24:29.188Z,6
2017-04-18T00:24:39.178Z,6
2017-04-18T00:24:49.173Z,6
2017-04-18T00:24:59.168Z,6
2017-04-18T00:25:09.163Z,6
2017-04-18T00:25:19.153Z,6
2017-04-18T00:25:29.148Z,6.1
2017-04-18T00:25:39.142Z,6
2017-04-18T00:25:49.135Z,6
2017-04-18T00:25:59.131Z,6
2017-04-18T00:26:09.487Z,6
2017-04-18T00:26:19.327Z,6.1
2017-04-18T00:26:29.114Z,6.1
2017-04-18T00:26:39.107Z,6
2017-04-18T00:26:49.102Z,6
2017-04-18T00:26:59.092Z,6
2017-04-18T00:27:09.442Z,6
2017-04-18T00:27:19.439Z,6
2017-04-18T00:27:28.903Z,6
2017-04-18T00:27:39.068Z,6.1
2017-04-18T00:27:48.055Z,6
2017-04-18T00:27:59.428Z,6
2017-04-18T00:28:09.049Z,6
2017-04-18T00:28:19.044Z,6
2017-04-18T00:28:29.046Z,6
2017-04-18T00:28:39.031Z,6
2017-04-18T00:28:49.071Z,5.9
2017-04-18T00:28:59.019Z,5.9
2017-04-18T00:29:09.015Z,6
2017-04-18T00:29:19.260Z,5.9
2017-04-18T00:29:28.665Z,5.9
2017-04-18T00:29:39.364Z,6
2017-04-18T00:29:48.654Z,6
2017-04-18T00:29:58.984Z,5.9
2017-04-18T00:30:08.642Z,5.9
2017-04-18T00:30:18.634Z,5.9
2017-04-18T00:30:28.964Z,5.9
2017-04-18T00:30:38.955Z,5.9
2017-04-18T00:30:48.952Z,5.9
2017-04-18T00:30:58.948Z,5.9
2017-04-18T00:31:08.941Z,5.9
2017-04-18T00:31:18.935Z,5.9
2017-04-18T00:31:28.594Z,5.9
2017-04-18T00:31:38.921Z,5.9
2017-04-18T00:31:48.916Z,5.9
2017-04-18T00:31:58.909Z,5.9
2017-04-18T00:32:08.570Z,5.9
2017-04-18T00:32:18.896Z,5.9
2017-04-18T00:32:28.891Z,5.9
2017-04-18T00:32:38.886Z,5.9
2017-04-18T00:32:48.885Z,5.9
2017-04-18T00:32:58.541Z,5.9
2017-04-18T00:33:09.262Z,5.9
2017-04-18T00:33:18.527Z,5.9
2017-04-18T00:33:28.855Z,5.8
2017-04-18T00:33:38.863Z,5.8
2017-04-18T00:33:48.846Z,5.8
2017-04-18T00:33:58.837Z,5.8
2017-04-18T00:34:08.829Z,5.9
2017-04-18T00:34:19.079Z,5.9
2017-04-18T00:34:28.834Z,5.8
2017-04-18T00:34:38.810Z,5.8
2017-04-18T00:34:48.468Z,5.8
2017-04-18T00:34:58.801Z,5.8
2017-04-18T00:35:08.793Z,5.8
2017-04-18T00:35:18.785Z,5.9
2017-04-18T00:35:28.780Z,5.9
2017-04-18T00:35:38.772Z,5.9
2017-04-18T00:35:48.768Z,5.9
2017-04-18T00:35:58.761Z,5.8
2017-04-18T00:36:08.756Z,5.8
2017-04-18T00:36:18.078Z,5.9
2017-04-18T00:36:28.797Z,5.8
2017-04-18T00:36:38.733Z,5.8
2017-04-18T00:36:48.729Z,5.8
2017-04-18T00:36:58.389Z,5.8
2017-04-18T00:37:08.384Z,5.9
2017-04-18T00:37:18.714Z,5.8
2017-04-18T00:37:28.371Z,5.8
2017-04-18T00:37:38.504Z,5.8
2017-04-18T00:37:48.689Z,5.8
2017-04-18T00:37:58.687Z,5.8
2017-04-18T00:38:08.687Z,5.9
2017-04-18T00:38:18.675Z,5.8
2017-04-18T00:38:28.671Z,5.8
2017-04-18T00:38:38.662Z,5.8
2017-04-18T00:38:49.288Z,5.8
2017-04-18T00:38:58.648Z,5.8
2017-04-18T00:39:08.640Z,5.8
2017-04-18T00:39:18.645Z,5.8
2017-04-18T00:39:28.631Z,5.8
2017-04-18T00:39:38.623Z,5.8
2017-04-18T00:39:48.619Z,5.8
2017-04-18T00:39:58.613Z,5.8
2017-04-18T00:40:08.974Z,5.8
2017-04-18T00:40:18.605Z,5.8
2017-04-18T00:40:28.594Z,5.8
2017-04-18T00:40:38.254Z,5.8
2017-04-18T00:40:48.581Z,5.8
2017-04-18T00:40:58.242Z,5.8
2017-04-18T00:41:08.571Z,5.8
2017-04-18T00:41:18.565Z,5.8
2017-04-18T00:41:28.558Z,5.8
2017-04-18T00:41:38.219Z,5.8
2017-04-18T00:41:48.544Z,5.8
2017-04-18T00:41:58.543Z,5.8
2017-04-18T00:42:07.871Z,5.8
2017-04-18T00:42:18.529Z,5.8
2017-04-18T00:42:28.522Z,5.8
2017-04-18T00:42:38.515Z,5.8
2017-04-18T00:42:48.507Z,5.8
2017-04-18T00:42:58.503Z,5.7
2017-04-18T00:43:08.647Z,5.7
2017-04-18T00:43:18.632Z,5.7
2017-04-18T00:43:28.149Z,5.8
2017-04-18T00:43:38.478Z,5.8
2017-04-18T00:43:48.470Z,5.8
2017-04-18T00:43:58.464Z,5.8
2017-04-18T00:44:08.840Z,5.8
2017-04-18T00:44:18.454Z,5.7
2017-04-18T00:44:28.768Z,5.7
2017-04-18T00:44:38.443Z,5.7
2017-04-18T00:44:48.098Z,5.7
2017-04-18T00:44:58.426Z,5.7
2017-04-18T00:45:08.421Z,5.7
2017-04-18T00:45:18.415Z,5.7
2017-04-18T00:45:28.410Z,5.7
2017-04-18T00:45:38.655Z,5.7
2017-04-18T00:45:48.062Z,5.7
2017-04-18T00:45:58.390Z,5.7
2017-04-18T00:46:08.385Z,5.7
2017-04-18T00:46:18.380Z,5.7
2017-04-18T00:46:28.371Z,5.7
2017-04-18T00:46:38.364Z,5.8
2017-04-18T00:46:48.379Z,5.8
2017-04-18T00:46:58.353Z,5.7
2017-04-18T00:47:08.347Z,5.7
2017-04-18T00:47:18.341Z,5.7
2017-04-18T00:47:27.332Z,5.7
2017-04-18T00:47:38.329Z,5.8
2017-04-18T00:47:48.446Z,5.8
2017-04-18T00:47:58.361Z,5.8
2017-04-18T00:48:08.311Z,5.8
2017-04-18T00:48:18.305Z,5.7
2017-04-18T00:48:28.318Z,5.7
2017-04-18T00:48:38.294Z,5.7
2017-04-18T00:48:48.285Z,5.7
2017-04-18T00:48:58.278Z,5.7
2017-04-18T00:49:08.275Z,5.7
2017-04-18T00:49:17.848Z,5.7
2017-04-18T00:49:28.262Z,5.7
2017-04-18T00:49:37.586Z,5.7
2017-04-18T00:49:48.249Z,5.7
2017-04-18T00:49:58.245Z,5.7
2017-04-18T00:50:08.099Z,5.7
2017-04-18T00:50:18.229Z,5.7
2017-04-18T00:50:27.890Z,5.7
2017-04-18T00:50:38.218Z,5.7
2017-04-18T00:50:48.245Z,5.7
2017-04-18T00:50:57.871Z,5.7
2017-04-18T00:51:08.224Z,5.7
2017-04-18T00:51:18.195Z,5.7
2017-04-18T00:51:28.186Z,5.7
2017-04-18T00:51:38.181Z,5.7
2017-04-18T00:51:48.174Z,5.7
2017-04-18T00:51:58.168Z,5.7
2017-04-18T00:52:08.164Z,5.7
2017-04-18T00:52:18.156Z,5.7
2017-04-18T00:52:28.505Z,5.7
2017-04-18T00:52:38.143Z,5.7
2017-04-18T00:52:48.140Z,5.8
2017-04-18T00:52:58.131Z,5.8
2017-04-18T00:53:08.126Z,5.8
2017-04-18T00:53:18.473Z,5.8
2017-04-18T00:53:28.144Z,5.8
2017-04-18T00:53:38.108Z,5.8
2017-04-18T00:53:48.101Z,5.8
2017-04-18T00:53:58.096Z,5.8
2017-04-18T00:54:07.757Z,5.8
2017-04-18T00:54:18.332Z,5.8
2017-04-18T00:54:28.077Z,5.7
2017-04-18T00:54:38.425Z,5.8
2017-04-18T00:54:48.065Z,5.7
2017-04-18T00:54:58.059Z,5.7
2017-04-18T00:55:08.050Z,5.8
2017-04-18T00:55:18.050Z,5.7
2017-04-18T00:55:28.056Z,5.8
2017-04-18T00:55:38.030Z,5.7
2017-04-18T00:55:48.052Z,5.8
2017-04-18T00:55:58.022Z,5.7
2017-04-18T00:56:08.013Z,5.7
2017-04-18T00:56:18.008Z,5.7
2017-04-18T00:56:27.664Z,5.7
2017-04-18T00:56:37.993Z,5.7
2017-04-18T00:56:47.985Z,5.7
2017-04-18T00:56:57.987Z,5.7
2017-04-18T00:57:07.977Z,5.8
2017-04-18T00:57:17.972Z,5.8
2017-04-18T00:57:27.961Z,5.8
2017-04-18T00:57:37.957Z,5.7
2017-04-18T00:57:47.618Z,5.7
2017-04-18T00:57:57.946Z,5.7
2017-04-18T00:58:08.308Z,5.7
2017-04-18T00:58:17.930Z,5.7
2017-04-18T00:58:27.589Z,5.8
2017-04-18T00:58:37.920Z,5.8
2017-04-18T00:58:47.916Z,5.8
2017-04-18T00:58:57.909Z,5.7
2017-04-18T00:59:08.379Z,5.7
2017-04-18T00:59:18.147Z,5.7
2017-04-18T00:59:27.556Z,5.7
2017-04-18T00:59:37.883Z,5.7
2017-04-18T00:59:47.561Z,5.7
2017-04-18T00:59:57.872Z,5.7
2017-04-18T01:00:07.531Z,5.7
2017-04-18T01:00:17.863Z,5.7
2017-04-18T01:00:27.850Z,5.7
2017-04-18T01:00:37.513Z,5.8
2017-04-18T01:00:47.542Z,5.8
2017-04-18T01:00:58.187Z,5.8
2017-04-18T01:01:07.493Z,5.7
2017-04-18T01:01:17.820Z,5.8
2017-04-18T01:01:27.873Z,5.8
2017-04-18T01:01:37.810Z,5.8
2017-04-18T01:01:47.133Z,5.8
2017-04-18T01:01:57.797Z,5.8
2017-04-18T01:02:07.455Z,5.7
2017-04-18T01:02:17.784Z,5.7
2017-04-18T01:02:27.779Z,5.7
2017-04-18T01:02:37.770Z,5.7
2017-04-18T01:02:47.433Z,5.7
2017-04-18T01:02:57.425Z,5.7
2017-04-18T01:03:07.753Z,5.7
2017-04-18T01:03:17.749Z,5.7
2017-04-18T01:03:27.747Z,5.8
2017-04-18T01:03:37.732Z,5.7
2017-04-18T01:03:47.394Z,5.7
2017-04-18T01:03:57.722Z,5.7
2017-04-18T01:04:07.717Z,5.7
2017-04-18T01:04:17.710Z,5.7
2017-04-18T01:04:27.703Z,5.8
2017-04-18T01:04:37.697Z,5.8
2017-04-18T01:04:47.692Z,5.8
2017-04-18T01:04:57.353Z,5.8
2017-04-18T01:05:07.681Z,5.8
2017-04-18T01:05:17.674Z,5.8
2017-04-18T01:05:27.332Z,5.8
2017-04-18T01:05:38.028Z,5.8
2017-04-18T01:05:47.681Z,5.8
2017-04-18T01:05:57.939Z,5.8
2017-04-18T01:06:07.644Z,5.8
2017-04-18T01:06:17.635Z,5.8
2017-04-18T01:06:27.293Z,5.8
2017-04-18T01:06:37.624Z,5.8
2017-04-18T01:06:47.286Z,5.8
2017-04-18T01:06:57.609Z,5.8
2017-04-18T01:07:07.609Z,5.8
2017-04-18T01:07:17.599Z,5.7
2017-04-18T01:07:27.592Z,5.7
2017-04-18T01:07:37.258Z,5.7
2017-04-18T01:07:47.246Z,5.7
2017-04-18T01:07:57.575Z,5.7
2017-04-18T01:08:07.568Z,5.7
2017-04-18T01:08:17.565Z,5.7
2017-04-18T01:08:27.556Z,5.7
2017-04-18T01:08:37.549Z,5.7
2017-04-18T01:08:46.874Z,5.7
2017-04-18T01:08:57.536Z,5.7
2017-04-18T01:09:07.528Z,5.7
2017-04-18T01:09:17.526Z,5.7
2017-04-18T01:09:26.847Z,5.7
2017-04-18T01:09:37.513Z,5.7
2017-04-18T01:09:47.173Z,5.7
2017-04-18T01:09:57.501Z,5.7
2017-04-18T01:10:06.823Z,5.7
2017-04-18T01:10:17.488Z,5.7
2017-04-18T01:10:27.642Z,5.7
2017-04-18T01:10:37.139Z,5.7
2017-04-18T01:10:47.467Z,5.7
2017-04-18T01:10:57.129Z,5.7
2017-04-18T01:11:07.452Z,5.7
2017-04-18T01:11:17.448Z,5.7
2017-04-18T01:11:27.444Z,5.7
2017-04-18T01:11:37.101Z,5.7
2017-04-18T01:11:47.097Z,5.7
2017-04-18T01:11:57.423Z,5.7
2017-04-18T01:12:07.111Z,5.7
2017-04-18T01:12:17.412Z,5.7
2017-04-18T01:12:27.407Z,5.7
2017-04-18T01:12:37.067Z,5.7
2017-04-18T01:12:47.059Z,5.7
2017-04-18T01:12:56.717Z,5.7
2017-04-18T01:13:07.408Z,5.7
2017-04-18T01:13:17.375Z,5.7
2017-04-18T01:13:27.367Z,5.7
2017-04-18T01:13:37.360Z,5.7
2017-04-18T01:13:47.357Z,5.7
2017-04-18T01:13:57.398Z,5.7
2017-04-18T01:14:07.343Z,5.7
2017-04-18T01:14:17.007Z,5.7
2017-04-18T01:14:27.692Z,5.7
2017-04-18T01:14:37.328Z,5.7
2017-04-18T01:14:47.319Z,5.7
2017-04-18T01:14:57.317Z,5.7
2017-04-18T01:15:06.972Z,5.7
2017-04-18T01:15:17.304Z,5.7
2017-04-18T01:15:26.958Z,5.7
2017-04-18T01:15:37.285Z,5.7
2017-04-18T01:15:47.285Z,5.7
2017-04-18T01:15:57.275Z,5.7
2017-04-18T01:16:07.268Z,5.7
2017-04-18T01:16:17.617Z,5.7
2017-04-18T01:16:26.586Z,5.7
2017-04-18T01:16:37.619Z,5.7
2017-04-18T01:16:47.457Z,5.7
2017-04-18T01:16:57.242Z,5.7
2017-04-18T01:17:07.232Z,5.7
2017-04-18T01:17:17.138Z,5.7
2017-04-18T01:17:27.218Z,5.7
2017-04-18T01:17:37.216Z,5.7
2017-04-18T01:17:47.208Z,5.7
2017-04-18T01:17:56.869Z,5.7
2017-04-18T01:18:06.861Z,5.7
2017-04-18T01:18:17.191Z,5.7
2017-04-18T01:18:27.301Z,5.7
2017-04-18T01:18:37.178Z,5.7
2017-04-18T01:18:46.834Z,5.7
2017-04-18T01:18:57.166Z,5.7
2017-04-18T01:19:07.158Z,5.7
2017-04-18T01:19:17.400Z,5.7
2017-04-18T01:19:27.145Z,5.7
2017-04-18T01:19:37.139Z,5.7
2017-04-18T01:19:47.133Z,5.7
2017-04-18T01:19:57.130Z,5.7
2017-04-18T01:20:07.120Z,5.7
2017-04-18T01:20:17.115Z,5.7
2017-04-18T01:20:27.111Z,5.7
2017-04-18T01:20:37.103Z,5.7
2017-04-18T01:20:46.759Z,5.7
2017-04-18T01:20:57.090Z,5.7
2017-04-18T01:21:06.747Z,5.7
2017-04-18T01:21:17.077Z,5.7
2017-04-18T01:21:27.072Z,5.7
2017-04-18T01:21:37.065Z,5.7
2017-04-18T01:21:47.061Z,5.7
2017-04-18T01:21:57.055Z,5.7
2017-04-18T01:22:07.048Z,5.7
2017-04-18T01:22:17.397Z,5.7
2017-04-18T01:22:27.386Z,5.7
2017-04-18T01:22:37.027Z,5.8
2017-04-18T01:22:46.684Z,5.8
2017-04-18T01:22:57.231Z,5.8
2017-04-18T01:23:07.012Z,5.8
2017-04-18T01:23:17.004Z,5.7
2017-04-18T01:23:26.662Z,5.7
2017-04-18T01:23:36.990Z,5.8
2017-04-18T01:23:46.646Z,5.7
2017-04-18T01:23:56.997Z,5.8
2017-04-18T01:24:06.999Z,5.8
2017-04-18T01:24:17.220Z,5.8
2017-04-18T01:24:26.624Z,5.8
2017-04-18T01:24:36.618Z,5.8
2017-04-18T01:24:46.613Z,5.8
2017-04-18T01:24:56.939Z,5.8
2017-04-18T01:25:06.937Z,5.8
2017-04-18T01:25:16.933Z,5.8
2017-04-18T01:25:26.921Z,5.8
2017-04-18T01:25:37.269Z,5.8
2017-04-18T01:25:46.908Z,5.8
2017-04-18T01:25:56.906Z,5.8
2017-04-18T01:26:06.225Z,5.8
2017-04-18T01:26:16.893Z,5.8
2017-04-18T01:26:26.884Z,5.8
2017-04-18T01:26:36.878Z,5.8
2017-04-18T01:26:46.872Z,5.8
2017-04-18T01:26:56.866Z,5.8
2017-04-18T01:27:06.897Z,5.8
2017-04-18T01:27:16.852Z,5.8
2017-04-18T01:27:27.069Z,5.8
2017-04-18T01:27:36.846Z,5.8
2017-04-18T01:27:46.835Z,5.8
2017-04-18T01:27:56.828Z,5.8
2017-04-18T01:28:06.819Z,5.8
2017-04-18T01:28:16.486Z,5.8
2017-04-18T01:28:26.810Z,5.8
2017-04-18T01:28:36.912Z,5.8
2017-04-18T01:28:46.797Z,5.8
2017-04-18T01:28:56.455Z,5.8
2017-04-18T01:29:06.787Z,5.8
2017-04-18T01:29:17.030Z,5.8
2017-04-18T01:29:26.774Z,5.8
2017-04-18T01:29:36.770Z,5.8
2017-04-18T01:29:47.113Z,5.8
2017-04-18T01:29:57.119Z,5.8
2017-04-18T01:30:06.411Z,5.8
2017-04-18T01:30:16.408Z,5.8
2017-04-18T01:30:26.736Z,5.8
2017-04-18T01:30:36.731Z,5.8
2017-04-18T01:30:46.723Z,5.8
2017-04-18T01:30:56.717Z,5.8
2017-04-18T01:31:06.709Z,5.7
2017-04-18T01:31:16.703Z,5.8
2017-04-18T01:31:26.698Z,5.8
2017-04-18T01:31:37.062Z,5.8
2017-04-18T01:31:46.351Z,5.8
2017-04-18T01:31:56.343Z,5.8
2017-04-18T01:32:07.029Z,5.7
2017-04-18T01:32:16.669Z,5.8
2017-04-18T01:32:26.660Z,5.8
2017-04-18T01:32:36.654Z,5.7
2017-04-18T01:32:45.646Z,5.7
2017-04-18T01:32:56.640Z,5.7
2017-04-18T01:33:06.935Z,5.7
2017-04-18T01:33:16.631Z,5.7
2017-04-18T01:33:26.621Z,5.7
2017-04-18T01:33:36.987Z,5.7
2017-04-18T01:33:46.609Z,5.7
2017-04-18T01:33:56.608Z,5.7
2017-04-18T01:34:06.599Z,5.7
2017-04-18T01:34:16.925Z,5.7
2017-04-18T01:34:26.283Z,5.8
2017-04-18T01:34:36.581Z,5.8
2017-04-18T01:34:46.575Z,5.8
2017-04-18T01:34:56.921Z,5.8
2017-04-18T01:35:06.560Z,5.8
2017-04-18T01:35:16.559Z,5.7
2017-04-18T01:35:26.728Z,5.7
2017-04-18T01:35:36.544Z,5.7
2017-04-18T01:35:46.538Z,5.7
2017-04-18T01:35:56.530Z,5.7
2017-04-18T01:36:06.523Z,5.7
2017-04-18T01:36:16.519Z,5.7
2017-04-18T01:36:26.510Z,5.7
2017-04-18T01:36:37.333Z,5.7
2017-04-18T01:36:46.500Z,5.8
2017-04-18T01:36:56.158Z,5.8
2017-04-18T01:37:06.486Z,5.8
2017-04-18T01:37:16.480Z,5.8
2017-04-18T01:37:26.472Z,5.8
2017-04-18T01:37:36.480Z,5.8
2017-04-18T01:37:46.128Z,5.8
2017-04-18T01:37:56.457Z,5.8
2017-04-18T01:38:06.448Z,5.8
2017-04-18T01:38:16.442Z,5.8
2017-04-18T01:38:26.438Z,5.8
2017-04-18T01:38:36.476Z,5.8
2017-04-18T01:38:45.756Z,5.8
2017-04-18T01:38:56.416Z,5.8
2017-04-18T01:39:06.417Z,5.8
2017-04-18T01:39:16.406Z,5.8
2017-04-18T01:39:26.402Z,5.8
2017-04-18T01:39:36.754Z,5.8
2017-04-18T01:39:46.055Z,5.8
2017-04-18T01:39:56.383Z,5.8
2017-04-18T01:40:06.377Z,5.8
2017-04-18T01:40:16.370Z,5.8
2017-04-18T01:40:26.362Z,5.8
2017-04-18T01:40:36.020Z,5.8
2017-04-18T01:40:46.018Z,5.8
2017-04-18T01:40:56.344Z,5.8
2017-04-18T01:41:06.338Z,5.8
2017-04-18T01:41:15.997Z,5.8
2017-04-18T01:41:26.325Z,5.7
2017-04-18T01:41:35.983Z,5.7
2017-04-18T01:41:46.314Z,5.7
2017-04-18T01:41:55.975Z,5.7
2017-04-18T01:42:06.301Z,5.7
2017-04-18T01:42:16.327Z,5.7
2017-04-18T01:42:26.288Z,5.7
2017-04-18T01:42:36.282Z,5.7
2017-04-18T01:42:46.277Z,5.7
2017-04-18T01:42:56.269Z,5.7
2017-04-18T01:43:06.262Z,5.7
2017-04-18T01:43:16.259Z,5.7
2017-04-18T01:43:25.915Z,5.7
2017-04-18T01:43:36.245Z,5.7
2017-04-18T01:43:45.904Z,5.7
2017-04-18T01:43:56.232Z,5.7
2017-04-18T01:44:05.888Z,5.7
2017-04-18T01:44:16.471Z,5.7
2017-04-18T01:44:26.212Z,5.7
2017-04-18T01:44:35.874Z,5.7
2017-04-18T01:44:45.866Z,5.7
2017-04-18T01:44:56.194Z,5.7
2017-04-18T01:45:06.188Z,5.7
2017-04-18T01:45:16.182Z,5.7
2017-04-18T01:45:26.542Z,5.8
2017-04-18T01:45:36.526Z,5.8
2017-04-18T01:45:46.165Z,5.8
2017-04-18T01:45:56.175Z,5.8
2017-04-18T01:46:06.153Z,5.8
2017-04-18T01:46:16.146Z,5.7
2017-04-18T01:46:26.140Z,5.7
2017-04-18T01:46:36.135Z,5.7
2017-04-18T01:46:46.126Z,5.7
2017-04-18T01:46:56.123Z,5.7
2017-04-18T01:47:06.112Z,5.7
2017-04-18T01:47:16.109Z,5.7
2017-04-18T01:47:26.102Z,5.7
2017-04-18T01:47:36.098Z,5.7
2017-04-18T01:47:45.419Z,5.7
2017-04-18T01:47:56.083Z,5.7
2017-04-18T01:48:06.073Z,5.7
2017-04-18T01:48:16.069Z,5.7
2017-04-18T01:48:26.061Z,5.7
2017-04-18T01:48:36.055Z,5.7
2017-04-18T01:48:46.052Z,5.7
2017-04-18T01:48:56.047Z,5.7
2017-04-18T01:49:06.042Z,5.7
2017-04-18T01:49:16.281Z,5.7
2017-04-18T01:49:26.379Z,5.7
2017-04-18T01:49:36.019Z,5.7
2017-04-18T01:49:46.015Z,5.7
2017-04-18T01:49:56.009Z,5.7
2017-04-18T01:50:05.668Z,5.7
2017-04-18T01:50:15.995Z,5.7
2017-04-18T01:50:25.990Z,5.7
2017-04-18T01:50:35.981Z,5.7
2017-04-18T01:50:45.975Z,5.7
2017-04-18T01:50:55.972Z,5.7
2017-04-18T01:51:05.965Z,5.8
2017-04-18T01:51:15.961Z,5.8
2017-04-18T01:51:25.617Z,5.8
2017-04-18T01:51:35.946Z,5.8
2017-04-18T01:51:45.604Z,5.7
2017-04-18T01:51:55.930Z,5.7
2017-04-18T01:52:05.926Z,5.7
2017-04-18T01:52:15.921Z,5.7
2017-04-18T01:52:25.914Z,5.8
2017-04-18T01:52:35.910Z,5.7
2017-04-18T01:52:45.567Z,5.7
2017-04-18T01:52:55.559Z,5.7
2017-04-18T01:53:05.889Z,5.7
2017-04-18T01:53:15.884Z,5.7
2017-04-18T01:53:25.544Z,5.7
2017-04-18T01:53:35.871Z,5.7
2017-04-18T01:53:45.863Z,5.7
2017-04-18T01:53:55.855Z,5.7
2017-04-18T01:54:05.519Z,5.7
2017-04-18T01:54:16.097Z,5.7
2017-04-18T01:54:26.189Z,5.7
2017-04-18T01:54:35.835Z,5.7
2017-04-18T01:54:45.850Z,5.7
2017-04-18T01:54:55.821Z,5.7
2017-04-18T01:55:05.816Z,5.7
2017-04-18T01:55:16.165Z,5.7
2017-04-18T01:55:26.154Z,5.7
2017-04-18T01:55:35.795Z,5.7
2017-04-18T01:55:45.455Z,5.7
2017-04-18T01:55:55.785Z,5.7
2017-04-18T01:56:05.777Z,5.7
2017-04-18T01:56:15.771Z,5.7
2017-04-18T01:56:25.765Z,5.8
2017-04-18T01:56:35.423Z,5.7
2017-04-18T01:56:45.754Z,5.7
2017-04-18T01:56:55.413Z,5.7
2017-04-18T01:57:06.093Z,5.7
2017-04-18T01:57:15.733Z,5.8
2017-04-18T01:57:25.728Z,5.8
2017-04-18T01:57:35.722Z,5.8
2017-04-18T01:57:45.715Z,5.8
2017-04-18T01:57:55.712Z,5.8
2017-04-18T01:58:05.702Z,5.8
2017-04-18T01:58:15.695Z,5.7
2017-04-18T01:58:25.358Z,5.7
2017-04-18T01:58:35.686Z,5.7
2017-04-18T01:58:46.031Z,5.7
2017-04-18T01:58:55.671Z,5.7
2017-04-18T01:59:05.331Z,5.7
2017-04-18T01:59:15.126Z,5.7
2017-04-18T01:59:25.318Z,5.7
2017-04-18T01:59:35.647Z,5.7
2017-04-18T01:59:44.972Z,5.7
2017-04-18T01:59:55.634Z,5.7
2017-04-18T02:00:05.628Z,5.7
2017-04-18T02:00:15.621Z,5.7
2017-04-18T02:00:25.281Z,5.7
2017-04-18T02:00:35.274Z,5.6
2017-04-18T02:00:45.603Z,5.7
2017-04-18T02:00:55.596Z,5.7
2017-04-18T02:01:05.592Z,5.7
2017-04-18T02:01:15.584Z,5.6
2017-04-18T02:01:25.577Z,5.7
2017-04-18T02:01:35.580Z,5.7
2017-04-18T02:01:45.563Z,5.7
2017-04-18T02:01:55.925Z,5.7
2017-04-18T02:02:05.907Z,5.7
2017-04-18T02:02:15.213Z,5.7
2017-04-18T02:02:25.206Z,5.7
2017-04-18T02:02:35.237Z,5.8
2017-04-18T02:02:45.716Z,5.8
2017-04-18T02:02:55.522Z,5.8
2017-04-18T02:03:05.514Z,5.7
2017-04-18T02:03:15.510Z,5.7
2017-04-18T02:03:25.503Z,5.7
2017-04-18T02:03:35.503Z,5.7
2017-04-18T02:03:45.492Z,5.7
2017-04-18T02:03:55.485Z,5.7
2017-04-18T02:04:05.477Z,5.7
2017-04-18T02:04:15.472Z,5.7
2017-04-18T02:04:25.128Z,5.7
2017-04-18T02:04:35.458Z,5.7
2017-04-18T02:04:45.455Z,5.7
2017-04-18T02:04:55.455Z,5.7
2017-04-18T02:05:05.443Z,5.7
2017-04-18T02:05:15.435Z,5.7
2017-04-18T02:05:25.093Z,5.7
2017-04-18T02:05:35.423Z,5.7
2017-04-18T02:05:45.416Z,5.7
2017-04-18T02:05:55.409Z,5.7
2017-04-18T02:06:05.296Z,5.7
2017-04-18T02:06:15.063Z,5.7
2017-04-18T02:06:25.392Z,5.7
2017-04-18T02:06:35.386Z,5.7
2017-04-18T02:06:45.384Z,5.7
2017-04-18T02:06:55.371Z,5.7
2017-04-18T02:07:05.392Z,5.7
2017-04-18T02:07:15.718Z,5.7
2017-04-18T02:07:25.355Z,5.7
2017-04-18T02:07:35.346Z,5.7
2017-04-18T02:07:45.712Z,5.7
2017-04-18T02:07:55.689Z,5.7
2017-04-18T02:08:05.680Z,5.7
2017-04-18T02:08:15.321Z,5.7
2017-04-18T02:08:25.779Z,5.7
2017-04-18T02:08:35.310Z,5.7
2017-04-18T02:08:45.304Z,5.7
2017-04-18T02:08:55.299Z,5.7
2017-04-18T02:09:05.293Z,5.7
2017-04-18T02:09:15.639Z,5.7
2017-04-18T02:09:24.943Z,5.7
2017-04-18T02:09:35.049Z,5.7
2017-04-18T02:09:45.265Z,5.8
2017-04-18T02:09:55.260Z,5.8
2017-04-18T02:10:05.255Z,5.8
2017-04-18T02:10:15.247Z,5.8
2017-04-18T02:10:25.240Z,5.8
2017-04-18T02:10:35.234Z,5.8
2017-04-18T02:10:45.227Z,5.7
2017-04-18T02:10:55.223Z,5.7
2017-04-18T02:11:05.572Z,5.7
2017-04-18T02:11:15.221Z,5.7
2017-04-18T02:11:25.569Z,5.7
2017-04-18T02:11:34.860Z,5.7
2017-04-18T02:11:45.546Z,5.7
2017-04-18T02:11:55.188Z,5.7
2017-04-18T02:12:04.845Z,5.7
2017-04-18T02:12:15.173Z,5.7
2017-04-18T02:12:25.165Z,5.7
2017-04-18T02:12:35.162Z,5.7
2017-04-18T02:12:45.156Z,5.7
2017-04-18T02:12:55.499Z,5.7
2017-04-18T02:13:05.140Z,5.6
2017-04-18T02:13:15.134Z,5.6
2017-04-18T02:13:25.129Z,5.6
2017-04-18T02:13:35.144Z,5.6
2017-04-18T02:13:45.119Z,5.6
2017-04-18T02:13:55.110Z,5.6
2017-04-18T02:14:05.267Z,5.6
2017-04-18T02:14:15.351Z,5.6
2017-04-18T02:14:25.090Z,5.6
2017-04-18T02:14:34.751Z,5.6
2017-04-18T02:14:45.084Z,5.6
2017-04-18T02:14:55.073Z,5.6
2017-04-18T02:15:04.063Z,5.6
2017-04-18T02:15:15.062Z,5.6
2017-04-18T02:15:25.053Z,5.5
2017-04-18T02:15:35.048Z,5.5
2017-04-18T02:15:45.043Z,5.5
2017-04-18T02:15:55.065Z,5.5
2017-04-18T02:16:05.027Z,5.5
2017-04-18T02:16:15.028Z,5.5
2017-04-18T02:16:24.680Z,5.5
2017-04-18T02:16:35.013Z,5.5
2017-04-18T02:16:45.007Z,5.5
2017-04-18T02:16:54.998Z,5.5
2017-04-18T02:17:04.992Z,5.5
2017-04-18T02:17:14.985Z,5.5
2017-04-18T02:17:24.978Z,5.5
2017-04-18T02:17:34.974Z,5.5
2017-04-18T02:17:44.966Z,5.5